sensor_id;sensor_type;location;lat;lon;timestamp;temperature;humidity
1728;DHT22;861;48.808;9.006;2022-09-09T00:01:37;16.60;99.90
1728;DHT22;861;48.808;9.006;2022-09-09T00:04:37;16.70;99.90
1728;DHT22;861;48.808;9.006;2022-09-09T00:07:21;16.60;99.90
1728;DHT22;861;48.808;9.006;2022-09-09T00:10:37;16.70;99.90
1728;DHT22;861;48.808;9.006;2022-09-09T00:13:34;16.70;99.90
1728;DHT22;861;48.808;9.006;2022-09-09T00:16:21;16.60;99.90
1728;DHT22;861;48.808;9.006;2022-09-09T00:19:17;16.70;99.90
1728;DHT22;861;48.808;9.006;2022-09-09T00:22:19;16.70;99.90
1728;DHT22;861;48.808;9.006;2022-09-09T00:24:56;16.70;99.90
1728;DHT22;861;48.808;9.006;2022-09-09T00:27:49;16.80;99.90
1728;DHT22;861;48.808;9.006;2022-09-09T00:30:31;16.80;99.90
1728;DHT22;861;48.808;9.006;2022-09-09T00:33:11;16.90;99.90
1728;DHT22;861;48.808;9.006;2022-09-09T00:36:01;16.80;99.90
1728;DHT22;861;48.808;9.006;2022-09-09T00:38:50;16.90;99.90
1728;DHT22;861;48.808;9.006;2022-09-09T00:41:43;16.80;99.90
1728;DHT22;861;48.808;9.006;2022-09-09T00:44:33;16.80;99.90
1728;DHT22;861;48.808;9.006;2022-09-09T00:47:46;16.80;99.90
1728;DHT22;861;48.808;9.006;2022-09-09T00:50:50;16.80;99.90
1728;DHT22;861;48.808;9.006;2022-09-09T00:54:14;16.70;99.90
1728;DHT22;861;48.808;9.006;2022-09-09T00:57:27;16.70;99.90
1728;DHT22;861;48.808;9.006;2022-09-09T01:06:34;16.60;99.90
1728;DHT22;861;48.808;9.006;2022-09-09T01:09:32;16.60;99.90
1728;DHT22;861;48.808;9.006;2022-09-09T01:12:26;16.70;99.90
1728;DHT22;861;48.808;9.006;2022-09-09T01:15:22;16.80;99.90
1728;DHT22;861;48.808;9.006;2022-09-09T01:18:14;16.80;99.90
1728;DHT22;861;48.808;9.006;2022-09-09T01:21:14;16.80;99.90
1728;DHT22;861;48.808;9.006;2022-09-09T01:24:40;16.80;99.90
1728;DHT22;861;48.808;9.006;2022-09-09T01:27:36;16.80;99.90
1728;DHT22;861;48.808;9.006;2022-09-09T01:30:15;16.70;99.90
1728;DHT22;861;48.808;9.006;2022-09-09T01:32:48;16.80;99.90
1728;DHT22;861;48.808;9.006;2022-09-09T01:38:18;16.70;99.90
1728;DHT22;861;48.808;9.006;2022-09-09T01:40:44;16.60;99.90
1728;DHT22;861;48.808;9.006;2022-09-09T01:43:11;16.60;99.90
1728;DHT22;861;48.808;9.006;2022-09-09T01:45:42;16.60;99.90
1728;DHT22;861;48.808;9.006;2022-09-09T01:48:13;16.70;99.90
1728;DHT22;861;48.808;9.006;2022-09-09T01:50:40;16.60;99.90
1728;DHT22;861;48.808;9.006;2022-09-09T01:53:06;16.60;99.90
1728;DHT22;861;48.808;9.006;2022-09-09T01:55:46;16.60;99.90
1728;DHT22;861;48.808;9.006;2022-09-09T01:59:01;16.60;99.90
1728;DHT22;861;48.808;9.006;2022-09-09T02:02:03;16.70;99.90
1728;DHT22;861;48.808;9.006;2022-09-09T02:04:51;16.70;99.90
1728;DHT22;861;48.808;9.006;2022-09-09T02:07:41;16.70;99.90
1728;DHT22;861;48.808;9.006;2022-09-09T02:13:18;16.70;99.90
1728;DHT22;861;48.808;9.006;2022-09-09T02:16:17;16.70;99.90
1728;DHT22;861;48.808;9.006;2022-09-09T02:19:11;16.70;99.90
1728;DHT22;861;48.808;9.006;2022-09-09T02:21:55;16.80;99.90
1728;DHT22;861;48.808;9.006;2022-09-09T02:24:29;16.90;99.90
1728;DHT22;861;48.808;9.006;2022-09-09T02:27:06;16.80;99.90
1728;DHT22;861;48.808;9.006;2022-09-09T02:29:40;16.80;99.90
1728;DHT22;861;48.808;9.006;2022-09-09T02:32:22;16.80;99.90
1728;DHT22;861;48.808;9.006;2022-09-09T02:35:02;16.90;99.90
1728;DHT22;861;48.808;9.006;2022-09-09T02:37:39;16.80;99.90
1728;DHT22;861;48.808;9.006;2022-09-09T02:40:12;16.70;99.90
1728;DHT22;861;48.808;9.006;2022-09-09T02:42:46;16.70;99.90
1728;DHT22;861;48.808;9.006;2022-09-09T02:45:20;16.70;99.90
1728;DHT22;861;48.808;9.006;2022-09-09T02:48:43;16.70;99.90
1728;DHT22;861;48.808;9.006;2022-09-09T02:56:04;16.70;99.90
1728;DHT22;861;48.808;9.006;2022-09-09T02:58:41;16.70;99.90
1728;DHT22;861;48.808;9.006;2022-09-09T03:01:07;16.80;99.90
1728;DHT22;861;48.808;9.006;2022-09-09T03:03:34;16.90;99.90
1728;DHT22;861;48.808;9.006;2022-09-09T03:06:01;16.70;99.90
1728;DHT22;861;48.808;9.006;2022-09-09T03:08:27;16.70;99.90
1728;DHT22;861;48.808;9.006;2022-09-09T03:10:59;16.80;99.90
1728;DHT22;861;48.808;9.006;2022-09-09T03:13:28;16.90;99.90
1728;DHT22;861;48.808;9.006;2022-09-09T03:15:55;16.90;99.90
1728;DHT22;861;48.808;9.006;2022-09-09T03:18:21;16.80;99.90
1728;DHT22;861;48.808;9.006;2022-09-09T03:20:47;16.60;99.90
1728;DHT22;861;48.808;9.006;2022-09-09T03:23:15;16.50;99.90
1728;DHT22;861;48.808;9.006;2022-09-09T03:25:48;16.30;99.90
1728;DHT22;861;48.808;9.006;2022-09-09T03:28:15;16.00;99.90
1728;DHT22;861;48.808;9.006;2022-09-09T03:30:42;16.10;99.90
1728;DHT22;861;48.808;9.006;2022-09-09T03:33:08;16.20;99.90
1728;DHT22;861;48.808;9.006;2022-09-09T03:35:34;16.30;99.90
1728;DHT22;861;48.808;9.006;2022-09-09T03:38:00;16.40;99.90
1728;DHT22;861;48.808;9.006;2022-09-09T03:40:27;16.40;99.90
1728;DHT22;861;48.808;9.006;2022-09-09T03:42:53;16.50;99.90
1728;DHT22;861;48.808;9.006;2022-09-09T03:45:20;16.60;99.90
1728;DHT22;861;48.808;9.006;2022-09-09T03:47:46;16.70;99.90
1728;DHT22;861;48.808;9.006;2022-09-09T03:50:12;16.60;99.90
1728;DHT22;861;48.808;9.006;2022-09-09T03:52:40;16.50;99.90
1728;DHT22;861;48.808;9.006;2022-09-09T03:55:08;16.40;99.90
1728;DHT22;861;48.808;9.006;2022-09-09T03:57:35;16.30;99.90
1728;DHT22;861;48.808;9.006;2022-09-09T04:00:07;16.40;99.90
1728;DHT22;861;48.808;9.006;2022-09-09T04:02:34;16.30;99.90
1728;DHT22;861;48.808;9.006;2022-09-09T04:05:01;16.10;99.90
1728;DHT22;861;48.808;9.006;2022-09-09T04:07:27;16.00;99.90
1728;DHT22;861;48.808;9.006;2022-09-09T04:09:54;15.80;99.90
1728;DHT22;861;48.808;9.006;2022-09-09T04:12:20;15.90;99.90
1728;DHT22;861;48.808;9.006;2022-09-09T04:14:46;15.80;99.90
1728;DHT22;861;48.808;9.006;2022-09-09T04:17:12;15.90;99.90
1728;DHT22;861;48.808;9.006;2022-09-09T04:19:39;15.70;99.90
1728;DHT22;861;48.808;9.006;2022-09-09T04:22:05;15.60;99.90
1728;DHT22;861;48.808;9.006;2022-09-09T04:24:31;15.60;99.90
1728;DHT22;861;48.808;9.006;2022-09-09T04:26:57;15.80;99.90
1728;DHT22;861;48.808;9.006;2022-09-09T04:29:23;15.80;99.90
1728;DHT22;861;48.808;9.006;2022-09-09T04:31:49;15.90;99.90
1728;DHT22;861;48.808;9.006;2022-09-09T04:34:15;15.90;99.90
1728;DHT22;861;48.808;9.006;2022-09-09T04:36:41;16.00;99.90
1728;DHT22;861;48.808;9.006;2022-09-09T04:39:08;16.00;99.90
1728;DHT22;861;48.808;9.006;2022-09-09T04:41:34;16.10;99.90
1728;DHT22;861;48.808;9.006;2022-09-09T04:44:00;16.00;99.90
1728;DHT22;861;48.808;9.006;2022-09-09T04:46:27;16.00;99.90
1728;DHT22;861;48.808;9.006;2022-09-09T04:48:53;16.00;99.90
1728;DHT22;861;48.808;9.006;2022-09-09T04:51:20;16.00;99.90
1728;DHT22;861;48.808;9.006;2022-09-09T04:53:46;16.10;99.90
1728;DHT22;861;48.808;9.006;2022-09-09T04:56:17;16.00;99.90
1728;DHT22;861;48.808;9.006;2022-09-09T04:58:44;16.00;99.90
1728;DHT22;861;48.808;9.006;2022-09-09T05:01:22;16.00;99.90
1728;DHT22;861;48.808;9.006;2022-09-09T05:03:49;16.00;99.90
1728;DHT22;861;48.808;9.006;2022-09-09T05:06:20;16.00;99.90
1728;DHT22;861;48.808;9.006;2022-09-09T05:08:48;16.00;99.90
1728;DHT22;861;48.808;9.006;2022-09-09T05:11:25;16.00;99.90
1728;DHT22;861;48.808;9.006;2022-09-09T05:13:55;16.00;99.90
1728;DHT22;861;48.808;9.006;2022-09-09T05:16:22;16.10;99.90
1728;DHT22;861;48.808;9.006;2022-09-09T05:18:50;16.00;99.90
1728;DHT22;861;48.808;9.006;2022-09-09T05:21:19;16.00;99.90
1728;DHT22;861;48.808;9.006;2022-09-09T05:23:48;15.90;99.90
1728;DHT22;861;48.808;9.006;2022-09-09T05:26:20;15.80;99.90
1728;DHT22;861;48.808;9.006;2022-09-09T05:28:48;15.80;99.90
1728;DHT22;861;48.808;9.006;2022-09-09T05:31:18;15.70;99.90
1728;DHT22;861;48.808;9.006;2022-09-09T05:33:47;15.40;99.90
1728;DHT22;861;48.808;9.006;2022-09-09T05:36:20;15.80;99.90
1728;DHT22;861;48.808;9.006;2022-09-09T05:38:48;15.70;99.90
1728;DHT22;861;48.808;9.006;2022-09-09T05:41:17;15.90;99.90
1728;DHT22;861;48.808;9.006;2022-09-09T05:43:44;15.90;99.90
1728;DHT22;861;48.808;9.006;2022-09-09T05:46:19;16.00;99.90
1728;DHT22;861;48.808;9.006;2022-09-09T05:48:49;16.20;99.90
1728;DHT22;861;48.808;9.006;2022-09-09T05:51:24;16.50;99.90
1728;DHT22;861;48.808;9.006;2022-09-09T05:53:54;16.40;99.90
1728;DHT22;861;48.808;9.006;2022-09-09T05:56:28;16.40;99.90
1728;DHT22;861;48.808;9.006;2022-09-09T05:58:56;16.50;99.90
1728;DHT22;861;48.808;9.006;2022-09-09T06:01:29;16.50;99.90
1728;DHT22;861;48.808;9.006;2022-09-09T06:03:59;16.20;99.90
1728;DHT22;861;48.808;9.006;2022-09-09T06:06:34;16.50;99.90
1728;DHT22;861;48.808;9.006;2022-09-09T06:09:04;16.50;99.90
1728;DHT22;861;48.808;9.006;2022-09-09T06:11:38;16.30;99.90
1728;DHT22;861;48.808;9.006;2022-09-09T06:14:07;16.20;99.90
1728;DHT22;861;48.808;9.006;2022-09-09T06:16:35;16.40;99.90
1728;DHT22;861;48.808;9.006;2022-09-09T06:19:03;16.40;99.90
1728;DHT22;861;48.808;9.006;2022-09-09T06:21:34;15.90;99.90
1728;DHT22;861;48.808;9.006;2022-09-09T06:24:04;16.30;99.90
1728;DHT22;861;48.808;9.006;2022-09-09T06:26:36;16.40;99.90
1728;DHT22;861;48.808;9.006;2022-09-09T06:29:08;16.50;99.90
1728;DHT22;861;48.808;9.006;2022-09-09T06:31:37;16.50;99.90
1728;DHT22;861;48.808;9.006;2022-09-09T06:34:08;16.60;99.90
1728;DHT22;861;48.808;9.006;2022-09-09T06:36:38;16.60;99.90
1728;DHT22;861;48.808;9.006;2022-09-09T06:39:06;16.70;99.90
1728;DHT22;861;48.808;9.006;2022-09-09T06:41:36;16.70;99.90
1728;DHT22;861;48.808;9.006;2022-09-09T06:44:04;16.80;99.90
1728;DHT22;861;48.808;9.006;2022-09-09T06:46:31;16.80;99.90
1728;DHT22;861;48.808;9.006;2022-09-09T06:48:59;16.90;99.90
1728;DHT22;861;48.808;9.006;2022-09-09T06:51:32;16.90;99.90
1728;DHT22;861;48.808;9.006;2022-09-09T06:54:03;16.90;99.90
1728;DHT22;861;48.808;9.006;2022-09-09T06:56:36;17.10;99.90
1728;DHT22;861;48.808;9.006;2022-09-09T06:59:09;17.20;99.90
1728;DHT22;861;48.808;9.006;2022-09-09T07:01:40;17.30;99.90
1728;DHT22;861;48.808;9.006;2022-09-09T07:04:17;17.50;99.90
1728;DHT22;861;48.808;9.006;2022-09-09T07:06:46;17.50;99.90
1728;DHT22;861;48.808;9.006;2022-09-09T07:09:15;17.70;99.90
1728;DHT22;861;48.808;9.006;2022-09-09T07:11:49;17.70;99.90
1728;DHT22;861;48.808;9.006;2022-09-09T07:14:19;17.80;99.90
1728;DHT22;861;48.808;9.006;2022-09-09T07:16:46;17.90;99.90
1728;DHT22;861;48.808;9.006;2022-09-09T07:19:13;18.30;99.90
1728;DHT22;861;48.808;9.006;2022-09-09T07:21:40;18.50;99.90
1728;DHT22;861;48.808;9.006;2022-09-09T07:24:07;18.70;99.90
1728;DHT22;861;48.808;9.006;2022-09-09T07:26:38;18.80;99.90
1728;DHT22;861;48.808;9.006;2022-09-09T07:29:06;18.90;99.90
1728;DHT22;861;48.808;9.006;2022-09-09T07:31:37;19.00;99.90
1728;DHT22;861;48.808;9.006;2022-09-09T07:34:06;19.00;99.90
1728;DHT22;861;48.808;9.006;2022-09-09T07:36:36;19.00;99.90
1728;DHT22;861;48.808;9.006;2022-09-09T07:39:11;18.80;99.90
1728;DHT22;861;48.808;9.006;2022-09-09T07:41:47;18.80;99.90
1728;DHT22;861;48.808;9.006;2022-09-09T07:44:21;18.80;99.90
1728;DHT22;861;48.808;9.006;2022-09-09T07:46:52;18.80;99.90
1728;DHT22;861;48.808;9.006;2022-09-09T07:49:19;18.90;99.90
1728;DHT22;861;48.808;9.006;2022-09-09T07:51:47;19.40;99.90
1728;DHT22;861;48.808;9.006;2022-09-09T07:54:18;19.40;99.90
1728;DHT22;861;48.808;9.006;2022-09-09T07:56:47;19.70;99.90
1728;DHT22;861;48.808;9.006;2022-09-09T07:59:13;19.80;99.90
1728;DHT22;861;48.808;9.006;2022-09-09T08:01:44;19.80;99.90
1728;DHT22;861;48.808;9.006;2022-09-09T08:04:18;19.90;99.90
1728;DHT22;861;48.808;9.006;2022-09-09T08:06:59;19.80;99.90
1728;DHT22;861;48.808;9.006;2022-09-09T08:09:27;19.80;99.90
1728;DHT22;861;48.808;9.006;2022-09-09T08:11:56;19.80;99.90
1728;DHT22;861;48.808;9.006;2022-09-09T08:14:24;20.00;99.90
1728;DHT22;861;48.808;9.006;2022-09-09T08:16:51;20.10;99.90
1728;DHT22;861;48.808;9.006;2022-09-09T08:19:18;20.20;99.90
1728;DHT22;861;48.808;9.006;2022-09-09T08:21:45;20.30;99.90
1728;DHT22;861;48.808;9.006;2022-09-09T08:24:13;20.30;99.90
1728;DHT22;861;48.808;9.006;2022-09-09T08:26:46;20.30;99.90
1728;DHT22;861;48.808;9.006;2022-09-09T08:29:15;20.30;99.90
1728;DHT22;861;48.808;9.006;2022-09-09T08:31:50;20.40;99.90
1728;DHT22;861;48.808;9.006;2022-09-09T08:34:21;20.40;99.90
1728;DHT22;861;48.808;9.006;2022-09-09T08:36:50;20.40;99.90
1728;DHT22;861;48.808;9.006;2022-09-09T08:39:20;20.40;99.90
1728;DHT22;861;48.808;9.006;2022-09-09T08:50:35;20.60;99.90
1728;DHT22;861;48.808;9.006;2022-09-09T08:53:22;20.60;99.90
1728;DHT22;861;48.808;9.006;2022-09-09T08:56:04;20.80;99.90
1728;DHT22;861;48.808;9.006;2022-09-09T08:58:52;21.00;99.90
1728;DHT22;861;48.808;9.006;2022-09-09T09:05:46;21.00;99.90
1728;DHT22;861;48.808;9.006;2022-09-09T09:10:56;20.60;99.90
1728;DHT22;861;48.808;9.006;2022-09-09T09:13:46;20.40;99.90
1728;DHT22;861;48.808;9.006;2022-09-09T09:19:21;20.80;99.90
1728;DHT22;861;48.808;9.006;2022-09-09T09:30:19;21.40;99.90
1728;DHT22;861;48.808;9.006;2022-09-09T09:33:01;21.60;99.90
1728;DHT22;861;48.808;9.006;2022-09-09T09:35:34;21.70;99.90
1728;DHT22;861;48.808;9.006;2022-09-09T09:38:00;21.80;99.90
1728;DHT22;861;48.808;9.006;2022-09-09T09:40:27;22.00;99.90
1728;DHT22;861;48.808;9.006;2022-09-09T09:43:00;22.10;99.90
1728;DHT22;861;48.808;9.006;2022-09-09T09:45:41;22.30;99.90
1728;DHT22;861;48.808;9.006;2022-09-09T09:48:14;22.40;99.90
1728;DHT22;861;48.808;9.006;2022-09-09T09:51:04;22.50;99.90
1728;DHT22;861;48.808;9.006;2022-09-09T09:53:39;22.60;99.90
1728;DHT22;861;48.808;9.006;2022-09-09T09:56:11;22.70;99.90
1728;DHT22;861;48.808;9.006;2022-09-09T10:01:30;23.20;99.90
1728;DHT22;861;48.808;9.006;2022-09-09T10:04:19;22.90;99.90
1728;DHT22;861;48.808;9.006;2022-09-09T10:06:50;22.60;99.90
1728;DHT22;861;48.808;9.006;2022-09-09T10:09:28;22.80;99.90
1728;DHT22;861;48.808;9.006;2022-09-09T10:15:46;23.10;99.90
1728;DHT22;861;48.808;9.006;2022-09-09T10:18:47;23.30;99.90
1728;DHT22;861;48.808;9.006;2022-09-09T10:22:11;23.30;99.90
1728;DHT22;861;48.808;9.006;2022-09-09T10:25:29;23.00;99.90
1728;DHT22;861;48.808;9.006;2022-09-09T10:28:29;22.90;99.90
1728;DHT22;861;48.808;9.006;2022-09-09T10:31:18;23.00;99.90
1728;DHT22;861;48.808;9.006;2022-09-09T10:41:00;22.20;99.90
1728;DHT22;861;48.808;9.006;2022-09-09T10:44:29;22.00;99.90
1728;DHT22;861;48.808;9.006;2022-09-09T10:47:33;21.60;99.90
1728;DHT22;861;48.808;9.006;2022-09-09T10:56:48;20.40;99.90
1728;DHT22;861;48.808;9.006;2022-09-09T10:59:33;19.90;99.90
1728;DHT22;861;48.808;9.006;2022-09-09T11:02:33;19.60;99.90
1728;DHT22;861;48.808;9.006;2022-09-09T11:05:49;19.10;99.90
1728;DHT22;861;48.808;9.006;2022-09-09T11:08:24;18.70;99.90
1728;DHT22;861;48.808;9.006;2022-09-09T11:11:13;18.40;99.90
1728;DHT22;861;48.808;9.006;2022-09-09T11:16:52;18.10;99.90
1728;DHT22;861;48.808;9.006;2022-09-09T11:19:36;18.10;99.90
1728;DHT22;861;48.808;9.006;2022-09-09T11:25:57;18.00;99.90
1728;DHT22;861;48.808;9.006;2022-09-09T11:29:08;17.90;99.90
1728;DHT22;861;48.808;9.006;2022-09-09T11:38:45;17.40;99.90
1728;DHT22;861;48.808;9.006;2022-09-09T11:41:20;17.50;99.90
1728;DHT22;861;48.808;9.006;2022-09-09T11:43:51;17.50;99.90
1728;DHT22;861;48.808;9.006;2022-09-09T11:46:36;17.50;99.90
1728;DHT22;861;48.808;9.006;2022-09-09T11:49:42;17.70;99.90
1728;DHT22;861;48.808;9.006;2022-09-09T11:52:40;17.60;99.90
1728;DHT22;861;48.808;9.006;2022-09-09T11:58:02;18.10;99.90
1728;DHT22;861;48.808;9.006;2022-09-09T12:00:41;18.40;99.90
1728;DHT22;861;48.808;9.006;2022-09-09T12:03:50;18.70;99.90
1728;DHT22;861;48.808;9.006;2022-09-09T12:06:41;19.10;99.90
1728;DHT22;861;48.808;9.006;2022-09-09T12:12:36;20.50;99.90
1728;DHT22;861;48.808;9.006;2022-09-09T12:17:45;21.20;99.90
1728;DHT22;861;48.808;9.006;2022-09-09T12:20:31;21.40;99.90
1728;DHT22;861;48.808;9.006;2022-09-09T12:26:58;22.20;99.90
1728;DHT22;861;48.808;9.006;2022-09-09T12:30:07;22.60;99.90
1728;DHT22;861;48.808;9.006;2022-09-09T12:32:37;22.50;99.90
1728;DHT22;861;48.808;9.006;2022-09-09T12:35:20;22.50;99.90
1728;DHT22;861;48.808;9.006;2022-09-09T12:38:02;22.60;99.90
1728;DHT22;861;48.808;9.006;2022-09-09T12:40:34;22.60;99.90
1728;DHT22;861;48.808;9.006;2022-09-09T12:43:23;22.60;99.90
1728;DHT22;861;48.808;9.006;2022-09-09T12:46:00;22.80;99.90
1728;DHT22;861;48.808;9.006;2022-09-09T12:48:41;23.10;99.90
1728;DHT22;861;48.808;9.006;2022-09-09T12:53:57;23.30;99.90
1728;DHT22;861;48.808;9.006;2022-09-09T12:56:31;23.30;99.90
1728;DHT22;861;48.808;9.006;2022-09-09T12:58:59;23.10;99.90
1728;DHT22;861;48.808;9.006;2022-09-09T13:01:32;22.90;99.90
1728;DHT22;861;48.808;9.006;2022-09-09T13:04:00;23.00;99.90
1728;DHT22;861;48.808;9.006;2022-09-09T13:06:29;23.00;99.90
1728;DHT22;861;48.808;9.006;2022-09-09T13:09:00;23.10;99.90
1728;DHT22;861;48.808;9.006;2022-09-09T13:11:41;23.20;99.90
1728;DHT22;861;48.808;9.006;2022-09-09T13:14:31;23.30;99.90
1728;DHT22;861;48.808;9.006;2022-09-09T13:17:06;23.90;99.90
1728;DHT22;861;48.808;9.006;2022-09-09T13:19:50;23.80;99.90
1728;DHT22;861;48.808;9.006;2022-09-09T13:22:39;24.00;99.90
1728;DHT22;861;48.808;9.006;2022-09-09T13:27:40;24.00;99.90
1728;DHT22;861;48.808;9.006;2022-09-09T13:30:37;23.90;99.90
1728;DHT22;861;48.808;9.006;2022-09-09T13:35:57;24.20;99.90
1728;DHT22;861;48.808;9.006;2022-09-09T13:38:35;24.30;97.80
1728;DHT22;861;48.808;9.006;2022-09-09T13:41:32;24.20;96.30
1728;DHT22;861;48.808;9.006;2022-09-09T13:44:05;23.80;99.70
1728;DHT22;861;48.808;9.006;2022-09-09T13:46:42;23.60;97.50
1728;DHT22;861;48.808;9.006;2022-09-09T13:51:45;23.10;99.50
1728;DHT22;861;48.808;9.006;2022-09-09T13:54:20;23.40;99.90
1728;DHT22;861;48.808;9.006;2022-09-09T13:56:47;23.50;99.80
1728;DHT22;861;48.808;9.006;2022-09-09T13:59:18;23.60;96.70
1728;DHT22;861;48.808;9.006;2022-09-09T14:01:47;23.20;96.90
1728;DHT22;861;48.808;9.006;2022-09-09T14:04:19;23.30;97.40
1728;DHT22;861;48.808;9.006;2022-09-09T14:06:50;23.40;98.00
1728;DHT22;861;48.808;9.006;2022-09-09T14:09:19;23.60;96.50
1728;DHT22;861;48.808;9.006;2022-09-09T14:11:47;23.80;97.90
1728;DHT22;861;48.808;9.006;2022-09-09T14:14:13;24.00;97.00
1728;DHT22;861;48.808;9.006;2022-09-09T14:16:40;24.00;96.00
1728;DHT22;861;48.808;9.006;2022-09-09T14:19:09;23.80;94.50
1728;DHT22;861;48.808;9.006;2022-09-09T14:21:35;23.60;93.90
1728;DHT22;861;48.808;9.006;2022-09-09T14:24:01;23.60;94.60
1728;DHT22;861;48.808;9.006;2022-09-09T14:26:28;23.40;94.70
1728;DHT22;861;48.808;9.006;2022-09-09T14:28:55;23.10;95.40
1728;DHT22;861;48.808;9.006;2022-09-09T14:31:24;22.90;95.40
1728;DHT22;861;48.808;9.006;2022-09-09T14:33:51;22.80;96.30
1728;DHT22;861;48.808;9.006;2022-09-09T14:36:18;22.90;97.50
1728;DHT22;861;48.808;9.006;2022-09-09T14:38:45;23.20;96.10
1728;DHT22;861;48.808;9.006;2022-09-09T14:41:18;23.40;95.00
1728;DHT22;861;48.808;9.006;2022-09-09T14:43:46;23.60;97.10
1728;DHT22;861;48.808;9.006;2022-09-09T14:46:19;23.60;94.90
1728;DHT22;861;48.808;9.006;2022-09-09T14:48:46;23.40;94.00
1728;DHT22;861;48.808;9.006;2022-09-09T14:51:19;23.40;93.80
1728;DHT22;861;48.808;9.006;2022-09-09T14:53:53;23.20;93.00
1728;DHT22;861;48.808;9.006;2022-09-09T14:56:25;22.90;94.10
1728;DHT22;861;48.808;9.006;2022-09-09T14:58:57;22.70;93.40
1728;DHT22;861;48.808;9.006;2022-09-09T15:01:28;22.50;94.00
1728;DHT22;861;48.808;9.006;2022-09-09T15:04:04;22.30;93.90
1728;DHT22;861;48.808;9.006;2022-09-09T15:06:35;22.20;93.80
1728;DHT22;861;48.808;9.006;2022-09-09T15:09:05;22.20;95.20
1728;DHT22;861;48.808;9.006;2022-09-09T15:11:36;22.10;94.20
1728;DHT22;861;48.808;9.006;2022-09-09T15:14:09;22.00;95.30
1728;DHT22;861;48.808;9.006;2022-09-09T15:16:37;22.00;95.40
1728;DHT22;861;48.808;9.006;2022-09-09T15:19:04;21.90;96.60
1728;DHT22;861;48.808;9.006;2022-09-09T15:21:34;21.80;96.00
1728;DHT22;861;48.808;9.006;2022-09-09T15:24:04;21.70;96.10
1728;DHT22;861;48.808;9.006;2022-09-09T15:26:33;21.70;96.50
1728;DHT22;861;48.808;9.006;2022-09-09T15:29:00;21.70;97.90
1728;DHT22;861;48.808;9.006;2022-09-09T15:31:31;21.80;98.30
1728;DHT22;861;48.808;9.006;2022-09-09T15:34:01;21.90;97.40
1728;DHT22;861;48.808;9.006;2022-09-09T15:36:44;21.90;97.20
1728;DHT22;861;48.808;9.006;2022-09-09T15:39:17;21.90;95.70
1728;DHT22;861;48.808;9.006;2022-09-09T15:41:46;21.80;95.70
1728;DHT22;861;48.808;9.006;2022-09-09T15:44:15;21.60;96.30
1728;DHT22;861;48.808;9.006;2022-09-09T15:46:46;21.50;96.80
1728;DHT22;861;48.808;9.006;2022-09-09T15:49:24;21.30;97.70
1728;DHT22;861;48.808;9.006;2022-09-09T15:52:00;21.20;97.00
1728;DHT22;861;48.808;9.006;2022-09-09T15:54:34;21.20;97.80
1728;DHT22;861;48.808;9.006;2022-09-09T15:57:07;21.20;97.00
1728;DHT22;861;48.808;9.006;2022-09-09T15:59:40;21.10;97.50
1728;DHT22;861;48.808;9.006;2022-09-09T16:02:06;21.10;97.40
1728;DHT22;861;48.808;9.006;2022-09-09T16:04:34;21.10;97.50
1728;DHT22;861;48.808;9.006;2022-09-09T16:07:04;21.10;98.00
1728;DHT22;861;48.808;9.006;2022-09-09T16:09:33;21.00;98.70
1728;DHT22;861;48.808;9.006;2022-09-09T16:12:03;21.00;98.50
1728;DHT22;861;48.808;9.006;2022-09-09T16:14:35;21.00;98.70
1728;DHT22;861;48.808;9.006;2022-09-09T16:17:03;21.00;98.90
1728;DHT22;861;48.808;9.006;2022-09-09T16:19:32;20.80;99.10
1728;DHT22;861;48.808;9.006;2022-09-09T16:21:58;20.70;99.70
1728;DHT22;861;48.808;9.006;2022-09-09T16:24:24;20.40;98.90
1728;DHT22;861;48.808;9.006;2022-09-09T16:26:54;20.10;99.10
1728;DHT22;861;48.808;9.006;2022-09-09T16:29:22;19.90;99.90
1728;DHT22;861;48.808;9.006;2022-09-09T16:31:53;19.90;99.90
1728;DHT22;861;48.808;9.006;2022-09-09T16:34:21;19.40;99.90
1728;DHT22;861;48.808;9.006;2022-09-09T16:36:48;19.60;99.90
1728;DHT22;861;48.808;9.006;2022-09-09T16:39:20;19.20;99.90
1728;DHT22;861;48.808;9.006;2022-09-09T16:41:48;19.10;99.90
1728;DHT22;861;48.808;9.006;2022-09-09T16:44:17;19.00;99.90
1728;DHT22;861;48.808;9.006;2022-09-09T16:46:46;18.90;99.90
1728;DHT22;861;48.808;9.006;2022-09-09T16:49:15;18.90;99.90
1728;DHT22;861;48.808;9.006;2022-09-09T16:51:50;18.70;99.90
1728;DHT22;861;48.808;9.006;2022-09-09T16:54:20;18.80;99.90
1728;DHT22;861;48.808;9.006;2022-09-09T16:56:49;18.80;99.90
1728;DHT22;861;48.808;9.006;2022-09-09T16:59:19;18.90;99.90
1728;DHT22;861;48.808;9.006;2022-09-09T17:01:51;18.50;99.90
1728;DHT22;861;48.808;9.006;2022-09-09T17:04:26;18.50;99.90
1728;DHT22;861;48.808;9.006;2022-09-09T17:06:54;18.60;99.90
1728;DHT22;861;48.808;9.006;2022-09-09T17:09:25;18.40;99.90
1728;DHT22;861;48.808;9.006;2022-09-09T17:11:54;18.30;99.90
1728;DHT22;861;48.808;9.006;2022-09-09T17:14:22;18.30;99.90
1728;DHT22;861;48.808;9.006;2022-09-09T17:16:49;18.20;99.90
1728;DHT22;861;48.808;9.006;2022-09-09T17:19:17;18.20;99.90
1728;DHT22;861;48.808;9.006;2022-09-09T17:21:43;18.20;99.90
1728;DHT22;861;48.808;9.006;2022-09-09T17:24:12;18.50;99.90
1728;DHT22;861;48.808;9.006;2022-09-09T17:26:38;18.10;99.90
1728;DHT22;861;48.808;9.006;2022-09-09T17:29:05;18.10;99.90
1728;DHT22;861;48.808;9.006;2022-09-09T17:31:31;18.10;99.90
1728;DHT22;861;48.808;9.006;2022-09-09T17:33:59;18.00;99.90
1728;DHT22;861;48.808;9.006;2022-09-09T17:36:32;18.00;99.90
1728;DHT22;861;48.808;9.006;2022-09-09T17:39:01;18.10;99.90
1728;DHT22;861;48.808;9.006;2022-09-09T17:41:35;18.00;99.90
1728;DHT22;861;48.808;9.006;2022-09-09T17:44:06;18.00;99.90
1728;DHT22;861;48.808;9.006;2022-09-09T17:46:40;17.80;99.90
1728;DHT22;861;48.808;9.006;2022-09-09T17:49:14;17.70;99.90
1728;DHT22;861;48.808;9.006;2022-09-09T17:51:45;17.80;99.90
1728;DHT22;861;48.808;9.006;2022-09-09T17:54:18;17.80;99.90
1728;DHT22;861;48.808;9.006;2022-09-09T17:56:47;17.70;99.90
1728;DHT22;861;48.808;9.006;2022-09-09T17:59:17;17.70;99.90
1728;DHT22;861;48.808;9.006;2022-09-09T18:01:47;17.70;99.90
1728;DHT22;861;48.808;9.006;2022-09-09T18:04:17;17.70;99.90
1728;DHT22;861;48.808;9.006;2022-09-09T18:06:48;17.80;99.90
1728;DHT22;861;48.808;9.006;2022-09-09T18:09:24;17.80;99.90
1728;DHT22;861;48.808;9.006;2022-09-09T18:11:56;17.70;99.90
1728;DHT22;861;48.808;9.006;2022-09-09T18:14:31;17.70;99.90
1728;DHT22;861;48.808;9.006;2022-09-09T18:17:00;17.60;99.90
1728;DHT22;861;48.808;9.006;2022-09-09T18:19:31;17.50;99.90
1728;DHT22;861;48.808;9.006;2022-09-09T18:21:58;17.50;99.90
1728;DHT22;861;48.808;9.006;2022-09-09T18:24:26;17.60;99.90
1728;DHT22;861;48.808;9.006;2022-09-09T18:26:52;17.60;99.90
1728;DHT22;861;48.808;9.006;2022-09-09T18:29:22;17.40;99.90
1728;DHT22;861;48.808;9.006;2022-09-09T18:31:54;17.40;99.90
1728;DHT22;861;48.808;9.006;2022-09-09T18:34:23;17.40;99.90
1728;DHT22;861;48.808;9.006;2022-09-09T18:36:55;17.50;99.90
1728;DHT22;861;48.808;9.006;2022-09-09T18:39:26;17.50;99.90
1728;DHT22;861;48.808;9.006;2022-09-09T18:41:58;17.50;99.90
1728;DHT22;861;48.808;9.006;2022-09-09T18:44:32;17.60;99.90
1728;DHT22;861;48.808;9.006;2022-09-09T18:47:01;17.50;99.90
1728;DHT22;861;48.808;9.006;2022-09-09T18:49:28;17.50;99.90